createdAt,value
2018-06-03T00:02:20.968Z,14.50
2018-06-03T00:04:48.347Z,13.53
2018-06-03T00:07:15.688Z,14.23
2018-06-03T00:09:43.066Z,14.30
2018-06-03T00:12:10.444Z,14.20
2018-06-03T00:14:37.868Z,14.40
2018-06-03T00:17:05.208Z,14.07
2018-06-03T00:19:32.643Z,15.93
2018-06-03T00:22:00.054Z,15.50
2018-06-03T00:24:27.445Z,16.43
2018-06-03T00:26:55.374Z,18.47
2018-06-03T00:29:22.797Z,19.40
2018-06-03T00:31:50.224Z,18.73
2018-06-03T00:34:17.643Z,18.53
2018-06-03T00:36:46.711Z,18.43
2018-06-03T00:39:14.151Z,20.07
2018-06-03T00:41:41.517Z,19.70
2018-06-03T00:44:08.964Z,20.60
2018-06-03T00:46:36.351Z,20.00
2018-06-03T00:49:03.991Z,20.23
2018-06-03T00:51:31.342Z,20.07
2018-06-03T00:53:58.904Z,22.63
2018-06-03T00:56:37.803Z,20.60
2018-06-03T00:59:05.209Z,21.97
2018-06-03T01:01:32.687Z,21.60
2018-06-03T01:04:00.064Z,23.30
2018-06-03T01:06:27.452Z,22.30
2018-06-03T01:08:54.848Z,23.10
2018-06-03T01:11:22.236Z,24.93
2018-06-03T01:13:49.601Z,24.23
2018-06-03T01:16:17.005Z,24.00
2018-06-03T01:18:44.442Z,26.07
2018-06-03T01:21:11.818Z,26.37
2018-06-03T01:23:39.732Z,27.67
2018-06-03T01:26:07.125Z,25.20
2018-06-03T01:28:34.537Z,27.00
2018-06-03T01:31:01.914Z,27.37
2018-06-03T01:33:29.595Z,28.07
2018-06-03T01:35:56.976Z,29.23
2018-06-03T01:38:24.367Z,30.13
2018-06-03T01:40:51.810Z,27.97
2018-06-03T01:43:19.196Z,29.83
2018-06-03T01:45:47.059Z,29.00
2018-06-03T01:48:14.454Z,29.50
2018-06-03T01:50:41.904Z,29.33
2018-06-03T01:53:09.324Z,28.80
2018-06-03T01:55:36.808Z,31.67
2018-06-03T01:58:04.200Z,28.33
2018-06-03T02:00:31.708Z,27.83
2018-06-03T02:02:59.105Z,29.10
2018-06-03T02:05:26.498Z,30.07
2018-06-03T02:07:54.264Z,30.40
2018-06-03T02:10:21.606Z,28.07
2018-06-03T02:12:49.022Z,30.73
2018-06-03T02:15:16.368Z,30.67
2018-06-03T02:17:43.738Z,29.07
2018-06-03T02:20:11.088Z,29.90
2018-06-03T02:22:38.432Z,28.53
2018-06-03T02:25:05.768Z,30.80
2018-06-03T02:27:33.165Z,27.90
2018-06-03T02:30:00.608Z,28.67
2018-06-03T02:32:28.002Z,31.03
2018-06-03T02:34:55.376Z,29.40
2018-06-03T02:37:22.709Z,31.10
2018-06-03T02:39:50.090Z,29.80
2018-06-03T02:42:17.439Z,29.80
2018-06-03T02:44:44.780Z,31.97
2018-06-03T02:47:12.171Z,32.43
2018-06-03T02:49:39.541Z,30.83
2018-06-03T02:52:06.997Z,30.30
2018-06-03T02:54:34.343Z,30.87
2018-06-03T02:57:01.680Z,29.90
2018-06-03T02:59:29.028Z,32.13
2018-06-03T03:01:56.377Z,30.63
2018-06-03T03:04:23.806Z,31.23
2018-06-03T03:06:51.297Z,31.90
2018-06-03T03:09:18.679Z,30.67
2018-06-03T03:11:46.165Z,33.37
2018-06-03T03:14:13.664Z,28.90
2018-06-03T03:16:41.053Z,33.50
2018-06-03T03:19:08.471Z,34.93
2018-06-03T03:21:36.015Z,31.40
2018-06-03T03:24:03.437Z,34.67
2018-06-03T03:26:30.848Z,32.90
2018-06-03T03:28:58.245Z,33.70
2018-06-03T03:31:25.657Z,33.47
2018-06-03T03:33:53.068Z,37.00
2018-06-03T03:36:20.508Z,34.63
2018-06-03T03:38:48.021Z,34.57
2018-06-03T03:41:15.520Z,35.13
2018-06-03T03:43:42.944Z,34.80
2018-06-03T03:46:10.352Z,36.07
2018-06-03T03:48:37.804Z,35.40
2018-06-03T03:51:05.564Z,36.27
2018-06-03T03:53:33.029Z,34.27
2018-06-03T03:56:00.892Z,34.50
2018-06-03T03:58:28.504Z,35.47
2018-06-03T04:00:55.920Z,37.93
2018-06-03T04:03:23.314Z,37.73
2018-06-03T04:05:50.782Z,33.63
2018-06-03T04:08:18.184Z,33.17
2018-06-03T04:10:45.573Z,34.10
2018-06-03T04:13:13.017Z,34.63
2018-06-03T04:15:40.387Z,33.17
2018-06-03T04:18:07.911Z,35.50
2018-06-03T04:20:35.299Z,30.77
2018-06-03T04:23:03.088Z,33.10
2018-06-03T04:25:30.525Z,32.93
2018-06-03T04:27:58.118Z,34.07
2018-06-03T04:30:25.539Z,33.90
2018-06-03T04:32:52.963Z,32.03
2018-06-03T04:35:20.401Z,30.57
2018-06-03T04:37:47.890Z,32.30
2018-06-03T04:40:16.857Z,32.50
2018-06-03T04:42:44.320Z,33.80
2018-06-03T04:45:11.732Z,33.87
2018-06-03T04:47:39.107Z,34.70
2018-06-03T04:50:06.523Z,32.20
2018-06-03T04:52:34.032Z,32.90
2018-06-03T04:55:01.450Z,31.37
2018-06-03T04:57:28.856Z,31.43
2018-06-03T04:59:56.251Z,30.17
2018-06-03T05:02:24.074Z,30.73
2018-06-03T05:04:51.460Z,31.10
2018-06-03T05:07:18.898Z,31.40
2018-06-03T05:09:46.318Z,33.27
2018-06-03T05:12:14.065Z,34.70
2018-06-03T05:14:41.457Z,34.30
2018-06-03T05:17:08.881Z,40.10
2018-06-03T05:19:36.387Z,40.13
2018-06-03T05:22:04.244Z,37.67
2018-06-03T05:24:31.691Z,39.67
2018-06-03T05:26:59.129Z,37.43
2018-06-03T05:29:26.727Z,41.33
2018-06-03T05:31:54.195Z,39.00
2018-06-03T05:34:21.643Z,39.83
2018-06-03T05:36:49.085Z,39.97
2018-06-03T05:39:16.507Z,41.90
2018-06-03T05:41:43.888Z,41.53
2018-06-03T05:44:11.420Z,40.17
2018-06-03T05:46:39.019Z,38.43
2018-06-03T05:49:06.466Z,40.93
2018-06-03T05:51:34.135Z,36.50
2018-06-03T05:54:01.535Z,39.90
2018-06-03T05:56:28.959Z,38.90
2018-06-03T05:58:56.679Z,40.23
2018-06-03T06:01:24.106Z,39.23
2018-06-03T06:03:51.706Z,37.30
2018-06-03T06:06:19.084Z,38.93
2018-06-03T06:08:46.521Z,38.20
2018-06-03T06:11:13.901Z,37.73
2018-06-03T06:13:41.290Z,35.83
2018-06-03T06:16:08.672Z,37.00
2018-06-03T06:18:36.133Z,37.10
2018-06-03T06:21:03.501Z,35.47
2018-06-03T06:23:30.904Z,37.07
2018-06-03T06:25:58.268Z,35.47
2018-06-03T06:28:25.625Z,35.80
2018-06-03T06:30:53.104Z,35.80
2018-06-03T06:33:20.486Z,35.17
2018-06-03T06:35:47.845Z,34.40
2018-06-03T06:38:15.236Z,33.70
2018-06-03T06:40:43.049Z,36.50
2018-06-03T06:43:10.837Z,35.47
2018-06-03T06:45:38.217Z,33.83
2018-06-03T06:48:05.616Z,35.20
2018-06-03T06:50:33.002Z,34.10
2018-06-03T06:53:00.803Z,36.60
2018-06-03T06:55:28.169Z,33.67
2018-06-03T06:57:55.583Z,36.57
2018-06-03T07:00:22.977Z,35.50
2018-06-03T07:02:50.891Z,35.23
2018-06-03T07:05:18.309Z,37.83
2018-06-03T07:07:45.829Z,37.20
2018-06-03T07:10:13.333Z,37.33
2018-06-03T07:12:40.728Z,35.47
2018-06-03T07:15:08.139Z,32.80
2018-06-03T07:17:35.594Z,36.03
2018-06-03T07:20:04.348Z,33.97
2018-06-03T07:22:31.805Z,33.50
2018-06-03T07:24:59.266Z,34.30
2018-06-03T07:27:26.656Z,33.90
2018-06-03T07:29:54.112Z,35.50
2018-06-03T07:32:21.562Z,34.33
2018-06-03T07:34:48.995Z,33.23
2018-06-03T07:37:16.356Z,35.80
2018-06-03T07:39:43.749Z,35.70
2018-06-03T07:42:11.223Z,34.37
2018-06-03T07:44:38.596Z,36.33
2018-06-03T07:47:05.992Z,33.47
2018-06-03T07:49:33.593Z,35.07
2018-06-03T07:52:00.984Z,33.90
2018-06-03T07:54:33.040Z,35.03
2018-06-03T07:57:00.477Z,33.83
2018-06-03T07:59:28.932Z,34.73
2018-06-03T08:01:56.355Z,35.33
2018-06-03T08:04:23.740Z,33.77
2018-06-03T08:06:51.292Z,34.40
2018-06-03T08:09:18.696Z,35.10
2018-06-03T08:11:47.524Z,34.53
2018-06-03T08:14:14.952Z,33.83
2018-06-03T08:16:42.355Z,34.13
2018-06-03T08:19:09.728Z,35.17
2018-06-03T08:21:37.215Z,29.37
2018-06-03T08:24:04.672Z,31.13
2018-06-03T08:26:32.072Z,30.87
2018-06-03T08:28:59.548Z,29.20
2018-06-03T08:31:26.973Z,29.90
2018-06-03T08:33:54.387Z,27.97
2018-06-03T08:36:22.495Z,30.50
2018-06-03T08:38:49.916Z,29.90
2018-06-03T08:41:17.317Z,30.40
2018-06-03T08:43:44.804Z,29.60
2018-06-03T08:46:13.701Z,32.80
2018-06-03T08:48:41.095Z,29.93
2018-06-03T08:51:09.575Z,32.30
2018-06-03T08:53:37.078Z,30.17
2018-06-03T08:56:04.493Z,30.30
2018-06-03T08:58:32.051Z,31.13
2018-06-03T09:00:59.449Z,31.40
2018-06-03T09:03:29.197Z,29.40
2018-06-03T09:05:56.632Z,29.13
2018-06-03T09:08:24.735Z,30.30
2018-06-03T09:10:52.141Z,31.50
2018-06-03T09:13:19.682Z,31.10
2018-06-03T09:15:47.206Z,29.23
2018-06-03T09:18:14.541Z,30.73
2018-06-03T09:20:41.962Z,30.50
2018-06-03T09:23:09.327Z,31.77
2018-06-03T09:25:36.900Z,32.20
2018-06-03T09:28:04.258Z,30.77
2018-06-03T09:30:31.589Z,32.73
2018-06-03T09:32:58.945Z,30.90
2018-06-03T09:35:26.296Z,33.67
2018-06-03T09:37:53.672Z,31.20
2018-06-03T09:40:21.024Z,34.10
2018-06-03T09:42:48.372Z,33.37
2018-06-03T09:45:15.837Z,33.47
2018-06-03T09:47:43.224Z,33.40
2018-06-03T09:50:11.512Z,31.03
2018-06-03T09:52:38.873Z,32.00
2018-06-03T09:55:06.235Z,30.13
2018-06-03T09:57:33.589Z,31.70
2018-06-03T10:00:00.923Z,29.70
2018-06-03T10:02:28.342Z,30.67
2018-06-03T10:04:55.752Z,28.10
2018-06-03T10:07:23.186Z,29.40
2018-06-03T10:09:50.608Z,29.07
2018-06-03T10:12:18.025Z,30.10
2018-06-03T10:14:45.426Z,29.23
2018-06-03T10:17:12.831Z,29.77
2018-06-03T10:19:40.211Z,26.70
2018-06-03T10:22:07.605Z,26.93
2018-06-03T10:24:35.212Z,27.70
2018-06-03T10:27:02.729Z,27.87
2018-06-03T10:29:31.374Z,27.67
2018-06-03T10:31:58.896Z,26.70
2018-06-03T10:34:26.296Z,26.27
2018-06-03T10:36:53.723Z,25.83
2018-06-03T10:39:21.118Z,26.03
2018-06-03T10:41:48.595Z,25.87
2018-06-03T10:44:15.996Z,26.20
2018-06-03T10:46:43.615Z,25.10
2018-06-03T10:49:11.043Z,26.60
2018-06-03T10:51:38.607Z,24.10
2018-06-03T10:54:06.213Z,27.63
2018-06-03T10:56:33.592Z,26.40
2018-06-03T10:59:02.381Z,26.47
2018-06-03T11:01:29.793Z,27.10
2018-06-03T11:03:57.252Z,25.57
2018-06-03T11:06:24.629Z,25.97
2018-06-03T11:08:52.163Z,27.10
2018-06-03T11:11:19.677Z,23.77
2018-06-03T11:13:47.212Z,26.17
2018-06-03T11:16:14.560Z,25.87
2018-06-03T11:18:41.947Z,26.20
2018-06-03T11:21:09.301Z,24.27
2018-06-03T11:23:36.716Z,25.33
2018-06-03T11:26:04.206Z,24.73
2018-06-03T11:28:35.583Z,24.87
2018-06-03T11:31:02.989Z,25.10
2018-06-03T11:33:30.313Z,23.20
2018-06-03T11:35:57.671Z,25.00
2018-06-03T11:38:25.390Z,24.40
2018-06-03T11:40:52.768Z,25.20
2018-06-03T11:43:22.790Z,25.23
2018-06-03T11:45:50.104Z,27.17
2018-06-03T11:48:17.443Z,25.40
2018-06-03T11:50:44.802Z,25.17
2018-06-03T11:53:12.174Z,26.67
2018-06-03T11:55:43.883Z,26.50
2018-06-03T11:58:54.250Z,26.63
2018-06-03T12:01:22.061Z,25.90
2018-06-03T12:03:49.396Z,26.53
2018-06-03T12:06:17.920Z,27.07
2018-06-03T12:08:46.577Z,29.13
2018-06-03T12:11:13.771Z,29.53
2018-06-03T12:13:41.264Z,25.57
2018-06-03T12:16:08.641Z,27.37
2018-06-03T12:18:36.036Z,24.27
2018-06-03T12:21:03.429Z,26.00
2018-06-03T12:23:32.407Z,27.10
2018-06-03T12:25:59.769Z,26.50
2018-06-03T12:28:27.122Z,26.10
2018-06-03T12:30:54.544Z,26.50
2018-06-03T12:33:41.634Z,25.17
2018-06-03T12:36:09.116Z,24.07
2018-06-03T12:38:36.579Z,26.67
2018-06-03T12:41:04.016Z,24.20
2018-06-03T12:43:31.383Z,26.77
2018-06-03T12:46:03.187Z,22.30
2018-06-03T12:48:30.592Z,25.70
2018-06-03T12:50:57.996Z,22.80
2018-06-03T12:53:25.496Z,25.70
2018-06-03T12:55:52.908Z,22.40
2018-06-03T12:58:20.300Z,23.27
2018-06-03T13:00:47.660Z,23.67
2018-06-03T13:03:18.022Z,22.43
2018-06-03T13:05:45.428Z,23.93
2018-06-03T13:08:12.801Z,25.13
2018-06-03T13:10:40.227Z,23.50
2018-06-03T13:13:07.636Z,23.97
2018-06-03T13:15:35.011Z,23.33
2018-06-03T13:18:06.691Z,24.17
2018-06-03T13:20:33.985Z,22.50
2018-06-03T13:23:01.388Z,23.07
2018-06-03T13:25:28.788Z,22.23
2018-06-03T13:27:56.284Z,20.27
2018-06-03T13:30:23.744Z,20.80
2018-06-03T13:32:51.156Z,20.30
2018-06-03T13:35:20.277Z,21.13
2018-06-03T13:37:47.677Z,20.90
2018-06-03T13:40:15.035Z,22.43
2018-06-03T13:42:42.416Z,20.73
2018-06-03T13:45:09.799Z,21.10
2018-06-03T13:47:37.288Z,19.10
2018-06-03T13:50:08.356Z,19.00
2018-06-03T13:52:36.122Z,20.23
2018-06-03T13:55:03.543Z,19.60
2018-06-03T13:57:30.995Z,19.47
2018-06-03T13:59:58.352Z,17.73
2018-06-03T14:02:25.750Z,18.93
2018-06-03T14:04:56.987Z,17.17
2018-06-03T14:07:24.365Z,17.30
2018-06-03T14:09:51.788Z,18.67
2018-06-03T14:12:19.201Z,19.93
2018-06-03T14:14:46.598Z,16.70
2018-06-03T14:17:13.998Z,16.10
2018-06-03T14:19:44.519Z,16.80
2018-06-03T14:22:12.043Z,15.53
2018-06-03T14:24:39.403Z,16.13
2018-06-03T14:27:06.791Z,17.20
2018-06-03T14:29:34.153Z,15.73
2018-06-03T14:32:05.947Z,16.80
2018-06-03T14:34:33.328Z,15.83
2018-06-03T14:37:00.759Z,17.23
2018-06-03T14:39:28.131Z,16.13
2018-06-03T14:41:55.591Z,15.97
2018-06-03T14:44:23.002Z,15.73
2018-06-03T14:46:52.528Z,17.10
2018-06-03T14:49:19.880Z,16.20
2018-06-03T14:51:47.249Z,15.30
2018-06-03T14:54:14.623Z,16.03
2018-06-03T14:56:41.991Z,15.47
2018-06-03T14:59:11.447Z,14.40
2018-06-03T15:01:41.937Z,15.90
2018-06-03T15:04:09.336Z,15.53
2018-06-03T15:06:36.847Z,15.53
2018-06-03T15:09:06.479Z,14.50
2018-06-03T15:11:33.896Z,16.10
2018-06-03T15:14:03.771Z,16.30
2018-06-03T15:16:31.187Z,16.17
2018-06-03T15:18:58.618Z,14.80
2018-06-03T15:21:26.062Z,14.37
2018-06-03T15:23:53.566Z,13.93
2018-06-03T15:26:22.785Z,14.20
2018-06-03T15:28:52.498Z,13.10
2018-06-03T15:31:19.973Z,14.10
2018-06-03T15:33:47.406Z,14.93
2018-06-03T15:36:14.762Z,13.20
2018-06-03T15:38:42.140Z,13.60
2018-06-03T15:41:09.502Z,13.07
2018-06-03T15:43:38.496Z,13.60
2018-06-03T15:46:06.001Z,11.77
2018-06-03T15:48:33.617Z,12.87
2018-06-03T15:51:01.015Z,12.30
2018-06-03T15:53:28.399Z,12.57
2018-06-03T15:55:55.772Z,11.30
2018-06-03T15:58:24.457Z,11.43
2018-06-03T16:00:51.843Z,12.13
2018-06-03T16:03:19.207Z,11.27
2018-06-03T16:05:46.592Z,10.50
2018-06-03T16:08:13.987Z,10.50
2018-06-03T16:10:41.392Z,11.60
2018-06-03T16:13:08.962Z,10.23
2018-06-03T16:15:37.616Z,9.10
2018-06-03T16:18:05.040Z,9.57
2018-06-03T16:20:32.595Z,10.87
2018-06-03T16:23:00.004Z,10.50
2018-06-03T16:25:27.408Z,10.27
2018-06-03T16:27:54.835Z,10.93
2018-06-03T16:30:25.905Z,10.37
2018-06-03T16:32:53.396Z,10.67
2018-06-03T16:35:20.812Z,9.30
2018-06-03T16:37:48.306Z,9.70
2018-06-03T16:40:15.647Z,9.67
2018-06-03T16:42:43.032Z,9.03
2018-06-03T16:45:10.479Z,9.47
2018-06-03T16:47:39.076Z,9.13
2018-06-03T16:50:06.546Z,9.73
2018-06-03T16:52:33.997Z,9.17
2018-06-03T16:55:01.436Z,9.63
2018-06-03T16:57:28.848Z,9.90
2018-06-03T16:59:56.272Z,9.93
2018-06-03T17:02:27.605Z,10.03
2018-06-03T17:04:55.127Z,9.57
2018-06-03T17:07:22.547Z,9.27
2018-06-03T17:09:49.936Z,8.80
2018-06-03T17:12:17.352Z,9.47
2018-06-03T17:14:44.799Z,10.13
2018-06-03T17:17:12.216Z,10.63
2018-06-03T17:19:39.667Z,9.53
2018-06-03T17:22:07.070Z,9.90
2018-06-03T17:24:34.732Z,9.00
2018-06-03T17:27:02.987Z,9.67
2018-06-03T17:29:31.771Z,9.40
2018-06-03T17:32:00.695Z,9.93
2018-06-03T17:34:28.162Z,10.10
2018-06-03T17:36:55.512Z,8.63
2018-06-03T17:39:22.933Z,10.17
2018-06-03T17:41:50.406Z,9.50
2018-06-03T17:44:21.475Z,11.70
2018-06-03T17:46:49.379Z,11.67
2018-06-03T17:49:16.864Z,11.47
2018-06-03T17:51:44.255Z,11.37
2018-06-03T17:54:12.012Z,11.37
2018-06-03T17:56:39.441Z,10.97
2018-06-03T17:59:10.032Z,10.43
2018-06-03T18:01:37.537Z,10.73
2018-06-03T18:04:04.960Z,10.17
2018-06-03T18:06:32.518Z,10.50
2018-06-03T18:08:59.911Z,9.47
2018-06-03T18:11:32.423Z,10.67
2018-06-03T18:13:59.900Z,9.20
2018-06-03T18:16:27.351Z,9.70
2018-06-03T18:18:54.802Z,9.10
2018-06-03T18:21:22.216Z,10.40
2018-06-03T18:23:49.623Z,10.27
2018-06-03T18:26:18.446Z,10.20
2018-06-03T18:28:45.852Z,9.37
2018-06-03T18:31:13.256Z,9.10
2018-06-03T18:33:40.663Z,9.60
2018-06-03T18:36:08.047Z,8.50
2018-06-03T18:38:36.486Z,8.17
2018-06-03T18:41:04.366Z,8.80
2018-06-03T18:43:31.836Z,8.43
2018-06-03T18:45:59.242Z,9.67
2018-06-03T18:48:27.511Z,9.03
2018-06-03T18:50:55.036Z,8.10
2018-06-03T18:53:25.878Z,8.50
2018-06-03T18:55:53.339Z,9.00
2018-06-03T18:58:20.844Z,9.80
2018-06-03T19:00:48.348Z,8.70
2018-06-03T19:03:15.939Z,8.30
2018-06-03T19:05:45.240Z,8.20
2018-06-03T19:08:15.296Z,9.00
2018-06-03T19:10:42.480Z,8.03
2018-06-03T19:13:09.737Z,9.37
2018-06-03T19:15:37.058Z,8.60
2018-06-03T19:18:04.489Z,8.00
2018-06-03T19:20:31.702Z,8.10
2018-06-03T19:22:58.951Z,8.10
2018-06-03T19:25:26.189Z,8.00
2018-06-03T19:27:53.383Z,8.67
2018-06-03T19:30:20.780Z,7.87
2018-06-03T19:32:47.986Z,8.40
2018-06-03T19:35:15.193Z,8.40
2018-06-03T19:37:42.405Z,8.30
2018-06-03T19:40:09.619Z,7.60
2018-06-03T19:42:36.861Z,8.43
2018-06-03T19:45:04.216Z,8.53
2018-06-03T19:47:31.420Z,7.53
2018-06-03T19:49:58.703Z,9.20
2018-06-03T19:52:25.974Z,8.53
2018-06-03T19:54:53.128Z,8.33
2018-06-03T19:57:20.332Z,9.30
2018-06-03T19:59:47.550Z,9.07
2018-06-03T20:02:14.787Z,8.83
2018-06-03T20:04:42.987Z,8.23
2018-06-03T20:07:10.963Z,8.03
2018-06-03T20:09:42.090Z,8.53
2018-06-03T20:12:09.329Z,9.83
2018-06-03T20:14:36.623Z,8.83
2018-06-03T20:17:03.840Z,9.67
2018-06-03T20:19:31.269Z,8.50
2018-06-03T20:22:03.536Z,9.50
2018-06-03T20:24:30.885Z,8.60
2018-06-03T20:26:58.272Z,9.57
2018-06-03T20:29:25.467Z,9.50
2018-06-03T20:31:52.682Z,8.20
2018-06-03T20:34:19.971Z,9.27
2018-06-03T20:36:47.185Z,9.17
2018-06-03T20:39:14.384Z,10.40
2018-06-03T20:41:41.581Z,10.40
2018-06-03T20:44:08.772Z,9.23
2018-06-03T20:46:36.039Z,9.17
2018-06-03T20:49:03.247Z,9.77
2018-06-03T20:51:30.436Z,9.40
2018-06-03T20:53:57.639Z,10.20
2018-06-03T20:56:24.844Z,9.37
2018-06-03T20:58:52.027Z,10.73
2018-06-03T21:01:19.281Z,10.33
2018-06-03T21:03:46.473Z,10.80
2018-06-03T21:06:13.668Z,9.50
2018-06-03T21:08:40.919Z,10.50
2018-06-03T21:11:08.102Z,10.07
2018-06-03T21:13:35.280Z,11.00
2018-06-03T21:16:02.481Z,9.70
2018-06-03T21:18:29.645Z,10.40
2018-06-03T21:20:56.913Z,10.07
2018-06-03T21:23:24.079Z,10.93
2018-06-03T21:25:51.276Z,10.87
2018-06-03T21:28:18.440Z,11.27
2018-06-03T21:30:45.950Z,10.60
2018-06-03T21:33:13.163Z,11.83
2018-06-03T21:35:40.395Z,11.47
2018-06-03T21:38:07.620Z,11.10
2018-06-03T21:40:34.796Z,11.43
2018-06-03T21:43:02.072Z,11.57
2018-06-03T21:45:29.252Z,11.23
2018-06-03T21:47:56.452Z,11.60
2018-06-03T21:50:24.048Z,12.00
2018-06-03T21:52:51.228Z,11.37
2018-06-03T21:55:18.456Z,12.00
2018-06-03T21:57:45.619Z,12.00
2018-06-03T22:00:12.824Z,11.93
2018-06-03T22:02:40.105Z,12.30
2018-06-03T22:05:07.348Z,11.57
2018-06-03T22:07:36.225Z,11.80
2018-06-03T22:10:03.649Z,11.50
2018-06-03T22:12:31.070Z,11.73
2018-06-03T22:14:58.757Z,11.27
2018-06-03T22:17:26.179Z,11.90
2018-06-03T22:19:58.017Z,12.60
2018-06-03T22:22:25.465Z,11.73
2018-06-03T22:24:53.018Z,12.47
2018-06-03T22:27:20.372Z,12.73
2018-06-03T22:29:47.771Z,11.77
2018-06-03T22:32:15.175Z,13.33
2018-06-03T22:34:42.588Z,12.17
2018-06-03T22:37:09.963Z,12.67
2018-06-03T22:39:37.432Z,13.10
2018-06-03T22:42:04.831Z,12.10
2018-06-03T22:44:32.432Z,13.77
2018-06-03T22:46:59.833Z,13.53
2018-06-03T22:49:27.220Z,14.20
2018-06-03T22:51:54.594Z,13.83
2018-06-03T22:54:22.047Z,13.10
2018-06-03T22:57:54.518Z,13.03
2018-06-03T23:00:37.631Z,13.93
2018-06-03T23:03:10.569Z,13.10
2018-06-03T23:05:38.279Z,13.97
2018-06-03T23:08:05.529Z,13.73
2018-06-03T23:10:32.839Z,14.60
2018-06-03T23:13:00.019Z,13.97
2018-06-03T23:15:27.264Z,12.90
2018-06-03T23:17:54.487Z,13.50
2018-06-03T23:20:21.724Z,13.73
2018-06-03T23:22:48.948Z,13.10
2018-06-03T23:25:16.154Z,13.20
2018-06-03T23:27:43.427Z,14.23
2018-06-03T23:30:10.652Z,14.20
2018-06-03T23:32:37.967Z,13.90
2018-06-03T23:35:05.154Z,14.03
2018-06-03T23:37:32.387Z,14.50
2018-06-03T23:39:59.592Z,13.60
2018-06-03T23:42:26.776Z,14.80
2018-06-03T23:44:53.995Z,14.00
2018-06-03T23:47:21.175Z,14.67
2018-06-03T23:49:48.376Z,16.63
2018-06-03T23:52:15.695Z,13.63
2018-06-03T23:54:43.049Z,15.00
2018-06-03T23:57:10.320Z,14.20
2018-06-03T23:59:37.624Z,15.33
